To NAV CANADA Home Page Login to a new session Search on AWWS site Feedback and Comments Disclaimer Vers la page française équivalente Tips FAQ What's new on the site To the Forecasts and Observations / NOTAM section To "File a Flight Plan" website Publications and other links Update of the User's profile FIC Telephone Numbers My Weather Data Folder Route Weather Data Regional Weather Data Local Weather Data To the Forecasts and Observations / NOTAM section
Request Generated 04/01/2015 at 03:05:45 UTC . Weather information available at that time is displayed.

METAR/TAF

ST. JOHN'S/ST. JOHN'S INTL/NL    

METAR CYYT 010300Z 19016KT 15SM BKN006 M01/M01 A2958 RMK SF7 SLP023=
SPECI CYYT 010243Z 19015KT 15SM BKN006 M01/M01 A2958 RMK SF7 SLP023=
SPECI CYYT 010218Z 18014KT 12SM -SN BKN005 OVC027 M01/M01 A2959 RMK
SF5SC3 SLP026=
METAR CYYT 010200Z 18014KT 12SM -SN OVC004 M01/M01 A2959 RMK SF8
SLP028=
SPECI CYYT 010120Z 17013KT 4SM -SN BR OVC003 M01/M01 A2959 RMK SF8
SLP028=
METAR CYYT 010100Z 16011KT 8SM -FZDZ -SN OVC004 M01/M01 A2960 RMK SF8
SLP030=

TAF CYYT 312340Z 0100/0124 16012KT 2SM -FZDZ BR OVC003 TEMPO
0100/0105 6SM -SN BR SCT003 OVC015 PROB30 0100/0105 1/2SM FZFG
VV001
FM010500 20015G25KT P6SM SCT008 OVC015 TEMPO 0105/0109 2SM BR
OVC008
FM010900 23020G35KT P6SM SCT030
BECMG 0116/0118 24015G25KT
FM012100 19012KT P6SM SCT180
FM012300 12012KT 2SM -SN OVC008
RMK NXT FCST BY 010600Z=
Your time UTC time
Weather data provided by Environment Canada and NAV CANADA